TimeCEST,TemperatureF,Dew PointF,Humidity,Sea Level PressureIn,VisibilityMPH,Wind Direction,Wind SpeedMPH,Gust SpeedMPH,PrecipitationIn,Events,Conditions,WindDirDegrees,DateUTC
2:00 AM,44,44,97,30.19,,NE,2.2,,,,,40,2012-10-23 00:00:00
4:43 AM,37.4,37.4,100,30.18,0.1,Calm,Calm,-,N/A,Fog,Fog,0,2012-10-23 02:43:00
4:45 AM,37.4,37.4,100,30.18,0.1,Calm,Calm,-,N/A,Fog,Fog,0,2012-10-23 02:45:00
5:45 AM,37.4,35.6,93,30.18,0.1,Calm,Calm,-,N/A,Fog,Fog,0,2012-10-23 03:45:00
6:15 AM,35.6,35.6,100,30.18,0.1,Calm,Calm,-,N/A,Fog,Fog,0,2012-10-23 04:15:00
6:43 AM,37.4,35.6,93,30.18,-9999.0,Calm,Calm,-,N/A,,Unknown,0,2012-10-23 04:43:00
6:45 AM,37.4,35.6,93,30.18,0.1,Calm,Calm,-,N/A,Fog,Fog,0,2012-10-23 04:45:00
7:00 AM,-9999,-9999,N/A,-9999,0.1,Variable,3.5,-,N/A,Fog,Fog,0,2012-10-23 05:00:00
7:15 AM,39.2,37.4,93,30.18,0.0,Calm,Calm,-,N/A,Fog,Fog,0,2012-10-23 05:15:00
7:45 AM,41.0,39.2,93,30.18,0.0,Calm,Calm,-,N/A,Fog,Fog,0,2012-10-23 05:45:00
8:00 AM,40,40,98,30.21,0,Calm,Calm,,,Fog,Heavy Fog,,2012-10-23 06:00:00
8:14 AM,-9999,-9999,N/A,-9999,-9999.0,North,-9999.0,-,N/A,Fog,Fog,0,2012-10-23 06:14:00
8:15 AM,44.6,42.8,93,30.21,0.1,ENE,4.6,-,N/A,Fog,Fog,70,2012-10-23 06:15:00
8:36 AM,44.6,44.6,100,30.21,0.6,ENE,4.6,-,N/A,Fog,Fog,60,2012-10-23 06:36:00
8:45 AM,44.6,44.6,100,30.21,0.9,ENE,4.6,-,N/A,,Mist,60,2012-10-23 06:45:00
9:15 AM,48.2,48.2,100,30.21,1.9,NE,6.9,-,N/A,,Mist,50,2012-10-23 07:15:00
9:45 AM,51.8,50.0,94,30.21,2.5,NE,9.2,-,N/A,,Mist,40,2012-10-23 07:45:00
10:00 AM,-9999,-9999,N/A,-9999,3.1,NE,8.1,-,N/A,,Mist,50,2012-10-23 08:00:00
10:15 AM,55.4,50.0,82,30.21,-9999.0,NE,8.1,-,N/A,,Mist,40,2012-10-23 08:15:00
10:45 AM,57.2,50.0,77,30.21,3.7,NE,9.2,-,N/A,,Unknown,40,2012-10-23 08:45:00
11:15 AM,57.2,50.0,77,30.21,5.0,NE,8.1,-,N/A,,Unknown,50,2012-10-23 09:15:00
11:45 AM,59.0,50.0,72,30.21,-9999.0,NNE,9.2,-,N/A,,Clear,30,2012-10-23 09:45:00
12:15 PM,60.8,50.0,68,30.21,-9999.0,NE,6.9,-,N/A,,Clear,40,2012-10-23 10:15:00
12:45 PM,62.6,50.0,63,30.18,-9999.0,North,6.9,-,N/A,,Clear,350,2012-10-23 10:45:00
1:00 PM,-9999,-9999,N/A,-9999,3.1,NE,8.1,-,N/A,,Clear,40,2012-10-23 11:00:00
1:15 PM,62.6,50.0,63,30.18,-9999.0,NNE,6.9,-,N/A,,Clear,30,2012-10-23 11:15:00
1:45 PM,64.4,50.0,59,30.18,-9999.0,NE,4.6,-,N/A,,Clear,40,2012-10-23 11:45:00
2:00 PM,64,50,51,30.18,9,NE,4.5,,,,Partly Cloudy,40,2012-10-23 12:00:00
2:15 PM,64.4,51.8,64,30.18,-9999.0,NNE,8.1,-,N/A,,Clear,20,2012-10-23 12:15:00
2:45 PM,64.4,50.0,59,30.18,-9999.0,NNE,8.1,-,N/A,,Clear,30,2012-10-23 12:45:00
3:15 PM,64.4,50.0,59,30.18,-9999.0,North,6.9,-,N/A,,Clear,360,2012-10-23 13:15:00
3:45 PM,64.4,50.0,59,30.18,-9999.0,North,5.8,-,N/A,,Clear,10,2012-10-23 13:45:00
4:00 PM,-9999,-9999,N/A,-9999,3.1,North,5.8,-,N/A,,Clear,360,2012-10-23 14:00:00
4:15 PM,62.6,50.0,63,30.18,-9999.0,NNE,6.9,-,N/A,,Clear,20,2012-10-23 14:15:00
4:45 PM,62.6,48.2,59,30.18,-9999.0,North,8.1,-,N/A,,Clear,10,2012-10-23 14:45:00
5:45 PM,57.2,46.4,67,30.18,-9999.0,North,9.2,-,N/A,,Clear,10,2012-10-23 15:45:00
6:15 PM,55.4,46.4,72,30.18,-9999.0,NNE,6.9,-,N/A,,Clear,30,2012-10-23 16:15:00
6:45 PM,53.6,46.4,77,30.18,-9999.0,NNE,6.9,-,N/A,,Clear,30,2012-10-23 16:45:00
7:15 PM,51.8,46.4,82,30.18,-9999.0,NNE,6.9,-,N/A,,Clear,30,2012-10-23 17:15:00
7:45 PM,51.8,44.6,76,30.18,-9999.0,NNE,10.4,-,N/A,,Clear,20,2012-10-23 17:45:00
8:00 PM,52,45,68,30.20,12,NNE,8.9,,,,Partly Cloudy,20,2012-10-23 18:00:00
8:00 PM,-9999,-9999,N/A,-9999,-9999.0,North,-9999.0,-,N/A,,Unknown,0,2012-10-23 18:00:00